sensor_id;sensor_type;location;lat;lon;timestamp;pressure;altitude;pressure_sealevel;temperature;humidity
22651;BME280;11492;42.646;23.400;2023-05-08T00:01:05;95197.53;;;13.73;66.24
22651;BME280;11492;42.646;23.400;2023-05-08T00:03:31;95206.09;;;13.67;65.67
22651;BME280;11492;42.646;23.400;2023-05-08T00:05:56;95202.69;;;13.67;65.81
22651;BME280;11492;42.646;23.400;2023-05-08T00:08:21;95208.84;;;13.66;64.72
22651;BME280;11492;42.646;23.400;2023-05-08T00:10:47;95201.69;;;13.68;65.10
22651;BME280;11492;42.646;23.400;2023-05-08T00:13:13;95207.28;;;13.71;64.63
22651;BME280;11492;42.646;23.400;2023-05-08T00:15:39;95207.28;;;13.71;64.21
22651;BME280;11492;42.646;23.400;2023-05-08T00:18:05;95214.56;;;13.82;61.71
22651;BME280;11492;42.646;23.400;2023-05-08T00:20:30;95212.16;;;13.87;63.48
22651;BME280;11492;42.646;23.400;2023-05-08T00:22:55;95209.81;;;13.92;63.29
22651;BME280;11492;42.646;23.400;2023-05-08T00:25:23;95209.81;;;13.92;61.53
22651;BME280;11492;42.646;23.400;2023-05-08T00:27:48;95211.47;;;13.99;63.28
22651;BME280;11492;42.646;23.400;2023-05-08T00:30:15;95213.06;;;14.00;61.41
22651;BME280;11492;42.646;23.400;2023-05-08T00:32:40;95212.69;;;14.03;61.22
22651;BME280;11492;42.646;23.400;2023-05-08T00:35:06;95213.06;;;14.06;61.88
22651;BME280;11492;42.646;23.400;2023-05-08T00:37:31;95214.88;;;14.12;62.11
22651;BME280;11492;42.646;23.400;2023-05-08T00:39:56;95211.13;;;14.15;62.52
22651;BME280;11492;42.646;23.400;2023-05-08T00:42:22;95218.31;;;14.13;62.19
22651;BME280;11492;42.646;23.400;2023-05-08T00:44:47;95220.91;;;14.13;62.83
22651;BME280;11492;42.646;23.400;2023-05-08T00:47:13;95212.28;;;14.06;63.18
22651;BME280;11492;42.646;23.400;2023-05-08T00:49:38;95219.84;;;14.07;62.41
22651;BME280;11492;42.646;23.400;2023-05-08T00:52:04;95215.06;;;14.04;62.60
22651;BME280;11492;42.646;23.400;2023-05-08T00:54:34;95217.81;;;13.96;63.18
22651;BME280;11492;42.646;23.400;2023-05-08T00:57:01;95218.22;;;13.94;62.96
22651;BME280;11492;42.646;23.400;2023-05-08T00:59:27;95222.53;;;13.87;63.00
22651;BME280;11492;42.646;23.400;2023-05-08T01:01:53;95211.97;;;13.82;63.09
22651;BME280;11492;42.646;23.400;2023-05-08T01:04:20;95218.53;;;13.78;63.53
22651;BME280;11492;42.646;23.400;2023-05-08T01:06:48;95220.09;;;13.72;64.57
22651;BME280;11492;42.646;23.400;2023-05-08T01:09:14;95226.22;;;13.65;64.43
22651;BME280;11492;42.646;23.400;2023-05-08T01:14:35;95227.97;;;13.52;64.09
22651;BME280;11492;42.646;23.400;2023-05-08T01:17:10;95223.34;;;13.47;64.84
22651;BME280;11492;42.646;23.400;2023-05-08T01:30:15;95234.38;;;13.29;64.88
22651;BME280;11492;42.646;23.400;2023-05-08T01:32:54;95227.00;;;13.26;65.32
22651;BME280;11492;42.646;23.400;2023-05-08T01:35:25;95224.97;;;13.21;65.11
22651;BME280;11492;42.646;23.400;2023-05-08T01:42:54;95220.66;;;13.08;65.72
22651;BME280;11492;42.646;23.400;2023-05-08T01:45:30;95215.88;;;13.05;66.34
22651;BME280;11492;42.646;23.400;2023-05-08T01:48:04;95221.22;;;13.03;65.31
22651;BME280;11492;42.646;23.400;2023-05-08T01:50:37;95223.25;;;13.08;66.44
22651;BME280;11492;42.646;23.400;2023-05-08T01:53:10;95215.25;;;13.03;65.74
22651;BME280;11492;42.646;23.400;2023-05-08T01:55:38;95212.72;;;13.09;66.06
22651;BME280;11492;42.646;23.400;2023-05-08T01:58:08;95211.72;;;13.10;65.68
22651;BME280;11492;42.646;23.400;2023-05-08T02:00:37;95206.66;;;13.02;65.93
22651;BME280;11492;42.646;23.400;2023-05-08T02:03:05;95212.88;;;13.08;65.93
22651;BME280;11492;42.646;23.400;2023-05-08T02:05:35;95210.50;;;13.06;66.13
22651;BME280;11492;42.646;23.400;2023-05-08T02:08:02;95211.25;;;13.00;66.50
22651;BME280;11492;42.646;23.400;2023-05-08T02:10:29;95204.38;;;12.93;66.35
22651;BME280;11492;42.646;23.400;2023-05-08T02:12:55;95212.03;;;13.01;66.39
22651;BME280;11492;42.646;23.400;2023-05-08T02:15:21;95215.22;;;12.76;67.05
22651;BME280;11492;42.646;23.400;2023-05-08T02:17:49;95211.13;;;12.88;67.76
22651;BME280;11492;42.646;23.400;2023-05-08T02:20:17;95207.19;;;12.92;67.30
22651;BME280;11492;42.646;23.400;2023-05-08T02:22:48;95212.00;;;12.95;66.72
22651;BME280;11492;42.646;23.400;2023-05-08T02:25:15;95215.56;;;12.94;67.37
22651;BME280;11492;42.646;23.400;2023-05-08T02:27:42;95219.63;;;13.02;67.04
22651;BME280;11492;42.646;23.400;2023-05-08T02:30:15;95220.66;;;13.08;67.24
22651;BME280;11492;42.646;23.400;2023-05-08T02:32:42;95215.47;;;13.08;67.66
22651;BME280;11492;42.646;23.400;2023-05-08T02:35:11;95221.28;;;13.10;66.70
22651;BME280;11492;42.646;23.400;2023-05-08T02:37:40;95216.84;;;13.04;67.18
22651;BME280;11492;42.646;23.400;2023-05-08T02:40:08;95210.06;;;13.03;67.74
22651;BME280;11492;42.646;23.400;2023-05-08T02:42:37;95216.78;;;12.97;67.49
22651;BME280;11492;42.646;23.400;2023-05-08T02:45:03;95220.38;;;12.96;68.01
22651;BME280;11492;42.646;23.400;2023-05-08T02:47:36;95218.75;;;12.89;68.13
22651;BME280;11492;42.646;23.400;2023-05-08T02:50:42;95210.28;;;12.81;68.41
22651;BME280;11492;42.646;23.400;2023-05-08T02:53:03;95225.22;;;12.79;68.64
22651;BME280;11492;42.646;23.400;2023-05-08T02:56:09;95225.22;;;12.79;68.52
22651;BME280;11492;42.646;23.400;2023-05-08T03:01:13;95219.53;;;12.69;69.18
22651;BME280;11492;42.646;23.400;2023-05-08T03:03:46;95233.75;;;12.73;69.25
22651;BME280;11492;42.646;23.400;2023-05-08T03:06:18;95210.63;;;12.57;68.73
22651;BME280;11492;42.646;23.400;2023-05-08T03:08:45;95223.56;;;12.57;69.02
22651;BME280;11492;42.646;23.400;2023-05-08T03:11:15;95226.38;;;12.76;67.72
22651;BME280;11492;42.646;23.400;2023-05-08T03:13:42;95231.00;;;12.81;68.11
22651;BME280;11492;42.646;23.400;2023-05-08T03:16:16;95231.44;;;12.64;67.11
22651;BME280;11492;42.646;23.400;2023-05-08T03:18:54;95238.91;;;12.52;67.81
22651;BME280;11492;42.646;23.400;2023-05-08T03:21:23;95239.34;;;12.42;68.17
22651;BME280;11492;42.646;23.400;2023-05-08T03:23:51;95247.47;;;12.53;67.96
22651;BME280;11492;42.646;23.400;2023-05-08T03:26:18;95245.19;;;12.64;68.78
22651;BME280;11492;42.646;23.400;2023-05-08T03:28:49;95240.09;;;12.71;67.97
22651;BME280;11492;42.646;23.400;2023-05-08T03:31:16;95249.13;;;12.60;67.68
22651;BME280;11492;42.646;23.400;2023-05-08T03:33:51;95244.97;;;12.45;68.89
22651;BME280;11492;42.646;23.400;2023-05-08T03:36:17;95249.38;;;12.45;67.41
22651;BME280;11492;42.646;23.400;2023-05-08T03:38:43;95248.53;;;12.58;68.55
22651;BME280;11492;42.646;23.400;2023-05-08T03:41:10;95240.81;;;12.65;68.33
22651;BME280;11492;42.646;23.400;2023-05-08T03:43:36;95245.03;;;12.51;68.05
22651;BME280;11492;42.646;23.400;2023-05-08T03:46:04;95239.06;;;12.51;67.94
22651;BME280;11492;42.646;23.400;2023-05-08T03:48:34;95236.66;;;12.49;67.94
22651;BME280;11492;42.646;23.400;2023-05-08T03:51:04;95241.09;;;12.55;67.71
22651;BME280;11492;42.646;23.400;2023-05-08T03:53:30;95238.72;;;12.54;67.92
22651;BME280;11492;42.646;23.400;2023-05-08T03:55:57;95239.06;;;12.51;67.87
22651;BME280;11492;42.646;23.400;2023-05-08T03:58:49;95248.28;;;12.53;68.10
22651;BME280;11492;42.646;23.400;2023-05-08T04:01:25;95247.03;;;12.70;68.15
22651;BME280;11492;42.646;23.400;2023-05-08T04:04:04;95253.53;;;12.80;68.31
22651;BME280;11492;42.646;23.400;2023-05-08T04:06:39;95258.53;;;12.82;67.78
22651;BME280;11492;42.646;23.400;2023-05-08T04:09:17;95259.88;;;12.78;67.61
22651;BME280;11492;42.646;23.400;2023-05-08T04:12:02;95265.31;;;12.83;68.52
22651;BME280;11492;42.646;23.400;2023-05-08T04:14:42;95267.47;;;13.00;67.73
22651;BME280;11492;42.646;23.400;2023-05-08T04:17:11;95265.13;;;13.05;68.10
22651;BME280;11492;42.646;23.400;2023-05-08T04:19:46;95253.19;;;13.10;66.85
22651;BME280;11492;42.646;23.400;2023-05-08T04:22:17;95267.50;;;13.27;67.45
22651;BME280;11492;42.646;23.400;2023-05-08T04:24:44;95266.38;;;13.36;67.98
22651;BME280;11492;42.646;23.400;2023-05-08T04:27:11;95267.22;;;13.43;68.62
22651;BME280;11492;42.646;23.400;2023-05-08T04:29:37;95264.25;;;13.46;67.89
22651;BME280;11492;42.646;23.400;2023-05-08T04:32:04;95269.84;;;13.49;67.77
22651;BME280;11492;42.646;23.400;2023-05-08T04:34:30;95270.69;;;13.56;66.92
22651;BME280;11492;42.646;23.400;2023-05-08T04:36:56;95271.91;;;13.60;67.17
22651;BME280;11492;42.646;23.400;2023-05-08T04:39:21;95260.75;;;13.66;66.90
22651;BME280;11492;42.646;23.400;2023-05-08T04:41:47;95253.97;;;13.65;66.22
22651;BME280;11492;42.646;23.400;2023-05-08T04:44:13;95254.00;;;13.71;66.49
22651;BME280;11492;42.646;23.400;2023-05-08T04:46:38;95255.78;;;13.70;66.92
22651;BME280;11492;42.646;23.400;2023-05-08T04:49:04;95252.84;;;13.73;65.92
22651;BME280;11492;42.646;23.400;2023-05-08T04:51:29;95257.69;;;13.83;65.76
22651;BME280;11492;42.646;23.400;2023-05-08T04:53:56;95250.78;;;13.96;66.49
22651;BME280;11492;42.646;23.400;2023-05-08T04:56:21;95252.38;;;13.97;64.82
22651;BME280;11492;42.646;23.400;2023-05-08T04:58:47;95248.38;;;13.95;65.08
22651;BME280;11492;42.646;23.400;2023-05-08T05:01:12;95248.25;;;13.75;65.08
22651;BME280;11492;42.646;23.400;2023-05-08T05:03:37;95247.28;;;13.83;65.18
22651;BME280;11492;42.646;23.400;2023-05-08T05:06:03;95249.19;;;14.01;65.19
22651;BME280;11492;42.646;23.400;2023-05-08T05:08:28;95251.22;;;14.06;64.61
22651;BME280;11492;42.646;23.400;2023-05-08T05:10:54;95249.72;;;14.30;64.38
22651;BME280;11492;42.646;23.400;2023-05-08T05:13:20;95236.72;;;14.24;63.43
22651;BME280;11492;42.646;23.400;2023-05-08T05:15:45;95247.94;;;14.44;63.60
22651;BME280;11492;42.646;23.400;2023-05-08T05:18:11;95239.56;;;14.48;62.93
22651;BME280;11492;42.646;23.400;2023-05-08T05:20:36;95232.56;;;14.48;63.44
22651;BME280;11492;42.646;23.400;2023-05-08T05:23:02;95235.59;;;14.52;63.47
22651;BME280;11492;42.646;23.400;2023-05-08T05:25:28;95233.63;;;14.73;63.27
22651;BME280;11492;42.646;23.400;2023-05-08T05:27:54;95239.84;;;14.78;62.24
22651;BME280;11492;42.646;23.400;2023-05-08T05:30:20;95238.06;;;14.85;61.74
22651;BME280;11492;42.646;23.400;2023-05-08T05:32:45;95231.25;;;14.91;61.26
22651;BME280;11492;42.646;23.400;2023-05-08T05:35:10;95238.09;;;15.04;61.15
22651;BME280;11492;42.646;23.400;2023-05-08T05:37:36;95231.28;;;15.10;61.20
22651;BME280;11492;42.646;23.400;2023-05-08T05:40:02;95231.69;;;15.20;61.03
22651;BME280;11492;42.646;23.400;2023-05-08T05:42:27;95231.28;;;15.29;60.73
22651;BME280;11492;42.646;23.400;2023-05-08T05:44:54;95233.47;;;15.38;60.88
22651;BME280;11492;42.646;23.400;2023-05-08T05:47:21;95233.28;;;15.40;61.10
22651;BME280;11492;42.646;23.400;2023-05-08T05:49:46;95227.66;;;15.55;60.60
22651;BME280;11492;42.646;23.400;2023-05-08T05:52:12;95234.03;;;15.78;60.15
22651;BME280;11492;42.646;23.400;2023-05-08T05:54:38;95231.38;;;15.91;60.29
22651;BME280;11492;42.646;23.400;2023-05-08T05:57:04;95226.75;;;15.99;60.11
22651;BME280;11492;42.646;23.400;2023-05-08T05:59:29;95232.72;;;16.06;59.82
22651;BME280;11492;42.646;23.400;2023-05-08T06:01:55;95219.50;;;16.08;60.12
22651;BME280;11492;42.646;23.400;2023-05-08T06:04:20;95232.31;;;16.16;59.33
22651;BME280;11492;42.646;23.400;2023-05-08T06:06:45;95219.44;;;16.27;59.46
22651;BME280;11492;42.646;23.400;2023-05-08T06:09:11;95220.63;;;16.31;59.33
22651;BME280;11492;42.646;23.400;2023-05-08T06:11:36;95212.97;;;16.36;59.59
22651;BME280;11492;42.646;23.400;2023-05-08T06:14:02;95216.97;;;16.38;58.75
22651;BME280;11492;42.646;23.400;2023-05-08T06:16:27;95218.13;;;16.48;58.66
22651;BME280;11492;42.646;23.400;2023-05-08T06:18:54;95216.09;;;16.50;58.92
22651;BME280;11492;42.646;23.400;2023-05-08T06:21:20;95215.06;;;16.58;58.76
22651;BME280;11492;42.646;23.400;2023-05-08T06:23:45;95201.00;;;16.59;58.37
22651;BME280;11492;42.646;23.400;2023-05-08T06:26:10;95207.75;;;16.72;58.09
22651;BME280;11492;42.646;23.400;2023-05-08T06:28:36;95213.09;;;16.84;57.65
22651;BME280;11492;42.646;23.400;2023-05-08T06:31:01;95211.00;;;16.92;56.78
22651;BME280;11492;42.646;23.400;2023-05-08T06:33:27;95212.97;;;16.96;56.56
22651;BME280;11492;42.646;23.400;2023-05-08T06:35:52;95217.97;;;17.04;55.71
22651;BME280;11492;42.646;23.400;2023-05-08T06:38:17;95210.53;;;17.08;55.86
22651;BME280;11492;42.646;23.400;2023-05-08T06:40:44;95213.59;;;17.22;55.57
22651;BME280;11492;42.646;23.400;2023-05-08T06:43:10;95211.31;;;17.32;54.73
22651;BME280;11492;42.646;23.400;2023-05-08T06:45:35;95210.81;;;17.42;55.19
22651;BME280;11492;42.646;23.400;2023-05-08T06:48:01;95210.50;;;17.56;55.00
22651;BME280;11492;42.646;23.400;2023-05-08T06:50:26;95215.81;;;17.67;53.45
22651;BME280;11492;42.646;23.400;2023-05-08T06:52:51;95209.84;;;17.78;53.21
22651;BME280;11492;42.646;23.400;2023-05-08T06:55:17;95213.72;;;17.93;53.52
22651;BME280;11492;42.646;23.400;2023-05-08T06:57:42;95212.94;;;18.10;52.63
22651;BME280;11492;42.646;23.400;2023-05-08T07:00:08;95209.72;;;18.26;53.47
22651;BME280;11492;42.646;23.400;2023-05-08T07:02:34;95206.38;;;18.37;52.14
22651;BME280;11492;42.646;23.400;2023-05-08T07:05:00;95220.31;;;18.48;52.63
22651;BME280;11492;42.646;23.400;2023-05-08T07:07:25;95207.28;;;18.60;52.11
22651;BME280;11492;42.646;23.400;2023-05-08T07:09:51;95210.28;;;18.74;50.71
22651;BME280;11492;42.646;23.400;2023-05-08T07:12:16;95219.38;;;18.90;50.78
22651;BME280;11492;42.646;23.400;2023-05-08T07:14:42;95216.06;;;18.94;50.80
22651;BME280;11492;42.646;23.400;2023-05-08T07:17:07;95217.31;;;18.92;50.65
22651;BME280;11492;42.646;23.400;2023-05-08T07:19:34;95214.81;;;18.97;50.19
22651;BME280;11492;42.646;23.400;2023-05-08T07:22:00;95202.41;;;18.92;50.91
22651;BME280;11492;42.646;23.400;2023-05-08T07:24:26;95223.06;;;19.11;51.19
22651;BME280;11492;42.646;23.400;2023-05-08T07:26:51;95222.81;;;19.13;50.99
22651;BME280;11492;42.646;23.400;2023-05-08T07:29:17;95214.31;;;19.28;50.30
22651;BME280;11492;42.646;23.400;2023-05-08T07:31:44;95206.09;;;19.25;49.82
22651;BME280;11492;42.646;23.400;2023-05-08T07:34:11;95214.66;;;19.43;49.59
22651;BME280;11492;42.646;23.400;2023-05-08T07:36:36;95214.44;;;19.45;48.92
22651;BME280;11492;42.646;23.400;2023-05-08T07:39:02;95199.06;;;19.48;49.31
22651;BME280;11492;42.646;23.400;2023-05-08T07:41:28;95214.47;;;19.67;48.97
22651;BME280;11492;42.646;23.400;2023-05-08T07:43:53;95210.59;;;19.81;49.10
22651;BME280;11492;42.646;23.400;2023-05-08T07:46:19;95219.44;;;20.02;48.83
22651;BME280;11492;42.646;23.400;2023-05-08T07:48:45;95219.66;;;20.12;48.22
22651;BME280;11492;42.646;23.400;2023-05-08T07:51:11;95216.31;;;20.28;48.32
22651;BME280;11492;42.646;23.400;2023-05-08T07:53:37;95217.09;;;20.40;47.57
22651;BME280;11492;42.646;23.400;2023-05-08T07:56:03;95221.06;;;20.42;47.76
22651;BME280;11492;42.646;23.400;2023-05-08T07:58:28;95220.50;;;20.51;47.10
22651;BME280;11492;42.646;23.400;2023-05-08T08:00:53;95215.47;;;20.61;46.71
22651;BME280;11492;42.646;23.400;2023-05-08T08:03:19;95223.75;;;20.97;46.22
22651;BME280;11492;42.646;23.400;2023-05-08T08:05:44;95213.53;;;21.00;46.07
22651;BME280;11492;42.646;23.400;2023-05-08T08:08:10;95227.56;;;21.49;45.24
22651;BME280;11492;42.646;23.400;2023-05-08T08:10:35;95231.47;;;21.63;43.97
22651;BME280;11492;42.646;23.400;2023-05-08T08:13:01;95223.97;;;22.25;43.36
22651;BME280;11492;42.646;23.400;2023-05-08T08:15:27;95223.34;;;22.60;41.51
22651;BME280;11492;42.646;23.400;2023-05-08T08:17:55;95211.34;;;23.16;40.64
22651;BME280;11492;42.646;23.400;2023-05-08T08:20:21;95216.22;;;23.55;40.37
22651;BME280;11492;42.646;23.400;2023-05-08T08:22:46;95206.59;;;23.80;39.88
22651;BME280;11492;42.646;23.400;2023-05-08T08:25:12;95229.66;;;23.94;39.12
22651;BME280;11492;42.646;23.400;2023-05-08T08:27:37;95219.44;;;23.67;39.49
22651;BME280;11492;42.646;23.400;2023-05-08T08:30:04;95218.88;;;24.00;38.88
22651;BME280;11492;42.646;23.400;2023-05-08T08:32:29;95217.03;;;24.42;38.13
22651;BME280;11492;42.646;23.400;2023-05-08T08:34:54;95204.72;;;24.67;37.08
22651;BME280;11492;42.646;23.400;2023-05-08T08:37:20;95202.59;;;24.59;37.44
22651;BME280;11492;42.646;23.400;2023-05-08T08:39:46;95210.25;;;24.60;37.91
22651;BME280;11492;42.646;23.400;2023-05-08T08:42:12;95204.34;;;24.39;37.57
22651;BME280;11492;42.646;23.400;2023-05-08T08:44:38;95206.41;;;24.32;38.46
22651;BME280;11492;42.646;23.400;2023-05-08T08:47:04;95210.63;;;24.28;38.14
22651;BME280;11492;42.646;23.400;2023-05-08T08:49:33;95200.25;;;24.12;38.81
22651;BME280;11492;42.646;23.400;2023-05-08T08:52:10;95195.59;;;23.88;39.52
22651;BME280;11492;42.646;23.400;2023-05-08T08:54:41;95192.09;;;23.77;39.82
22651;BME280;11492;42.646;23.400;2023-05-08T08:57:08;95191.47;;;23.35;40.40
22651;BME280;11492;42.646;23.400;2023-05-08T08:59:39;95178.56;;;23.07;41.34
22651;BME280;11492;42.646;23.400;2023-05-08T09:02:08;95178.28;;;23.04;41.81
22651;BME280;11492;42.646;23.400;2023-05-08T09:04:36;95181.81;;;23.14;42.27
22651;BME280;11492;42.646;23.400;2023-05-08T09:07:02;95174.38;;;23.11;42.11
22651;BME280;11492;42.646;23.400;2023-05-08T09:09:30;95174.38;;;23.11;42.07
22651;BME280;11492;42.646;23.400;2023-05-08T09:11:58;95163.75;;;23.01;42.02
22651;BME280;11492;42.646;23.400;2023-05-08T09:14:24;95168.44;;;22.95;42.80
22651;BME280;11492;42.646;23.400;2023-05-08T09:16:52;95166.84;;;22.94;43.04
22651;BME280;11492;42.646;23.400;2023-05-08T09:19:17;95158.28;;;22.82;43.24
22651;BME280;11492;42.646;23.400;2023-05-08T09:21:44;95155.72;;;22.66;43.18
22651;BME280;11492;42.646;23.400;2023-05-08T09:24:09;95157.47;;;22.55;43.53
22651;BME280;11492;42.646;23.400;2023-05-08T09:26:37;95151.28;;;22.45;44.06
22651;BME280;11492;42.646;23.400;2023-05-08T09:31:45;95149.66;;;22.18;45.54
22651;BME280;11492;42.646;23.400;2023-05-08T09:34:27;95136.94;;;22.10;45.41
22651;BME280;11492;42.646;23.400;2023-05-08T09:37:13;95128.84;;;21.96;45.45
22651;BME280;11492;42.646;23.400;2023-05-08T09:39:39;95134.50;;;21.88;44.89
22651;BME280;11492;42.646;23.400;2023-05-08T09:42:06;95139.69;;;21.83;45.35
22651;BME280;11492;42.646;23.400;2023-05-08T09:44:47;95143.38;;;21.82;45.73
22651;BME280;11492;42.646;23.400;2023-05-08T09:47:23;95141.78;;;21.81;46.46
22651;BME280;11492;42.646;23.400;2023-05-08T09:50:08;95138.63;;;21.79;46.25
22651;BME280;11492;42.646;23.400;2023-05-08T09:52:35;95148.72;;;21.87;46.40
22651;BME280;11492;42.646;23.400;2023-05-08T09:55:09;95151.25;;;21.82;46.82
22651;BME280;11492;42.646;23.400;2023-05-08T09:57:40;95159.38;;;21.97;45.74
22651;BME280;11492;42.646;23.400;2023-05-08T10:00:15;95151.56;;;22.01;45.24
22651;BME280;11492;42.646;23.400;2023-05-08T10:02:53;95157.03;;;22.16;45.92
22651;BME280;11492;42.646;23.400;2023-05-08T10:05:29;95153.59;;;22.37;45.18
22651;BME280;11492;42.646;23.400;2023-05-08T10:08:18;95151.50;;;22.65;44.64
22651;BME280;11492;42.646;23.400;2023-05-08T10:10:43;95145.69;;;22.84;45.20
22651;BME280;11492;42.646;23.400;2023-05-08T10:13:08;95149.75;;;22.96;44.24
22651;BME280;11492;42.646;23.400;2023-05-08T10:15:36;95143.91;;;23.20;44.25
22651;BME280;11492;42.646;23.400;2023-05-08T10:18:04;95138.97;;;23.33;43.47
22651;BME280;11492;42.646;23.400;2023-05-08T10:20:31;95136.22;;;23.45;43.40
22651;BME280;11492;42.646;23.400;2023-05-08T10:22:58;95144.63;;;23.42;43.13
22651;BME280;11492;42.646;23.400;2023-05-08T10:25:24;95137.03;;;23.50;42.82
22651;BME280;11492;42.646;23.400;2023-05-08T10:30:25;95126.81;;;23.63;43.00
22651;BME280;11492;42.646;23.400;2023-05-08T10:32:52;95124.16;;;23.58;42.85
22651;BME280;11492;42.646;23.400;2023-05-08T10:35:22;95124.16;;;23.58;42.76
22651;BME280;11492;42.646;23.400;2023-05-08T10:37:48;95117.69;;;23.76;43.77
22651;BME280;11492;42.646;23.400;2023-05-08T10:40:14;95116.63;;;23.76;42.76
22651;BME280;11492;42.646;23.400;2023-05-08T10:42:40;95120.63;;;23.84;42.12
22651;BME280;11492;42.646;23.400;2023-05-08T10:45:07;95112.25;;;23.97;41.97
22651;BME280;11492;42.646;23.400;2023-05-08T10:47:50;95109.78;;;24.41;41.88
22651;BME280;11492;42.646;23.400;2023-05-08T10:53:18;95104.38;;;25.30;40.11
22651;BME280;11492;42.646;23.400;2023-05-08T10:55:46;95102.50;;;25.70;39.33
22651;BME280;11492;42.646;23.400;2023-05-08T10:58:28;95098.69;;;26.01;38.61
22651;BME280;11492;42.646;23.400;2023-05-08T11:03:27;95096.34;;;26.61;37.70
22651;BME280;11492;42.646;23.400;2023-05-08T11:05:54;95102.94;;;26.59;37.86
22651;BME280;11492;42.646;23.400;2023-05-08T11:08:24;95089.13;;;26.72;37.52
22651;BME280;11492;42.646;23.400;2023-05-08T11:16:03;95083.34;;;27.63;36.47
22651;BME280;11492;42.646;23.400;2023-05-08T11:18:30;95077.53;;;28.30;35.39
22651;BME280;11492;42.646;23.400;2023-05-08T11:21:01;95079.78;;;28.65;34.63
22651;BME280;11492;42.646;23.400;2023-05-08T11:23:36;95063.03;;;28.64;34.75
22651;BME280;11492;42.646;23.400;2023-05-08T11:26:12;95063.94;;;28.91;33.48
22651;BME280;11492;42.646;23.400;2023-05-08T11:28:39;95063.13;;;29.27;32.62
22651;BME280;11492;42.646;23.400;2023-05-08T11:31:06;95057.50;;;29.60;32.55
22651;BME280;11492;42.646;23.400;2023-05-08T11:33:35;95054.81;;;29.91;31.68
22651;BME280;11492;42.646;23.400;2023-05-08T11:36:20;95054.84;;;30.18;31.05
22651;BME280;11492;42.646;23.400;2023-05-08T11:39:09;95053.59;;;30.37;30.45
22651;BME280;11492;42.646;23.400;2023-05-08T11:41:39;95042.75;;;30.60;30.92
22651;BME280;11492;42.646;23.400;2023-05-08T11:44:15;95038.09;;;30.65;31.07
22651;BME280;11492;42.646;23.400;2023-05-08T11:46:48;95037.63;;;30.85;30.36
22651;BME280;11492;42.646;23.400;2023-05-08T11:49:15;95032.56;;;30.83;30.08
22651;BME280;11492;42.646;23.400;2023-05-08T11:51:44;95027.06;;;30.80;30.09
22651;BME280;11492;42.646;23.400;2023-05-08T11:54:18;95024.19;;;31.11;30.18
22651;BME280;11492;42.646;23.400;2023-05-08T11:56:44;95022.00;;;31.13;29.78
22651;BME280;11492;42.646;23.400;2023-05-08T11:59:10;95012.53;;;31.29;30.09
22651;BME280;11492;42.646;23.400;2023-05-08T12:01:36;95016.78;;;31.60;29.49
22651;BME280;11492;42.646;23.400;2023-05-08T12:04:03;94998.84;;;31.09;29.50
22651;BME280;11492;42.646;23.400;2023-05-08T12:06:29;95001.59;;;31.39;29.34
22651;BME280;11492;42.646;23.400;2023-05-08T12:08:56;94997.19;;;31.64;28.84
22651;BME280;11492;42.646;23.400;2023-05-08T12:11:22;94999.25;;;31.46;28.77
22651;BME280;11492;42.646;23.400;2023-05-08T12:13:52;94997.22;;;31.51;28.71
22651;BME280;11492;42.646;23.400;2023-05-08T12:16:18;94997.19;;;31.64;28.80
22651;BME280;11492;42.646;23.400;2023-05-08T12:18:43;94992.88;;;31.85;28.75
22651;BME280;11492;42.646;23.400;2023-05-08T12:21:10;94998.66;;;31.79;28.38
22651;BME280;11492;42.646;23.400;2023-05-08T12:23:36;95000.97;;;31.63;28.83
22651;BME280;11492;42.646;23.400;2023-05-08T12:26:02;94990.66;;;31.87;28.14
22651;BME280;11492;42.646;23.400;2023-05-08T12:28:29;94988.03;;;31.95;28.06
22651;BME280;11492;42.646;23.400;2023-05-08T12:30:56;94984.13;;;31.33;28.89
22651;BME280;11492;42.646;23.400;2023-05-08T12:33:22;94978.28;;;30.66;29.53
22651;BME280;11492;42.646;23.400;2023-05-08T12:35:49;94971.69;;;30.03;30.28
22651;BME280;11492;42.646;23.400;2023-05-08T12:38:14;94970.66;;;29.32;31.27
22651;BME280;11492;42.646;23.400;2023-05-08T12:40:42;94965.56;;;28.73;31.63
22651;BME280;11492;42.646;23.400;2023-05-08T12:43:08;94973.00;;;27.99;32.81
22651;BME280;11492;42.646;23.400;2023-05-08T12:45:40;94976.75;;;27.52;33.88
22651;BME280;11492;42.646;23.400;2023-05-08T12:48:15;94981.31;;;26.90;34.72
22651;BME280;11492;42.646;23.400;2023-05-08T12:50:44;94971.28;;;26.50;35.71
22651;BME280;11492;42.646;23.400;2023-05-08T12:53:14;94975.34;;;25.90;35.84
22651;BME280;11492;42.646;23.400;2023-05-08T12:55:50;94966.41;;;25.76;36.40
22651;BME280;11492;42.646;23.400;2023-05-08T12:58:20;94973.50;;;25.90;36.32
22651;BME280;11492;42.646;23.400;2023-05-08T13:00:49;94966.53;;;25.52;36.87
22651;BME280;11492;42.646;23.400;2023-05-08T13:03:23;94963.81;;;25.66;37.00
22651;BME280;11492;42.646;23.400;2023-05-08T13:05:50;94963.25;;;25.74;36.95
22651;BME280;11492;42.646;23.400;2023-05-08T13:08:15;94955.97;;;25.52;36.90
22651;BME280;11492;42.646;23.400;2023-05-08T13:10:54;94966.56;;;25.42;37.18
22651;BME280;11492;42.646;23.400;2023-05-08T13:13:25;94979.22;;;25.40;37.39
22651;BME280;11492;42.646;23.400;2023-05-08T13:15:53;94979.25;;;25.45;39.05
22651;BME280;11492;42.646;23.400;2023-05-08T13:18:19;94967.88;;;25.34;39.89
22651;BME280;11492;42.646;23.400;2023-05-08T13:20:45;94979.84;;;25.12;40.94
22651;BME280;11492;42.646;23.400;2023-05-08T13:23:11;94990.44;;;24.88;41.88
22651;BME280;11492;42.646;23.400;2023-05-08T13:25:37;94989.38;;;24.69;42.83
22651;BME280;11492;42.646;23.400;2023-05-08T13:28:03;94998.34;;;24.44;43.90
22651;BME280;11492;42.646;23.400;2023-05-08T13:30:29;94998.81;;;24.21;44.63
22651;BME280;11492;42.646;23.400;2023-05-08T13:32:55;94997.72;;;24.07;44.96